Terminal Aerodrome Forecast
Issued by NWS St Louis, MO

Home | Current Version | Previous Version | Text Only | Print | Product List | Glossary On
Versions: 1 2 3 4 5 6 7 8 9 10 11 12 13 14 15 16 17 18 19 20 21 22 23 24 25 26 27 28 29 30 31 32 33
445
FTUS43 KLSX 281701 AAB
TAFSTL
TAF AMD
KSTL 281701Z 2817/2918 27010KT 5SM HZ BKN008
     FM281800 28010KT P6SM SCT010 BKN035
     FM281900 30011KT P6SM BKN040
     FM282300 30010KT P6SM SCT250
     FM290300 25005KT P6SM SKC=

USA.gov is the U.S. government's official web portal to all federal, state and local government web resources and services.